Time;durP1;ratioP1;P1;durP2;ratioP2;P2;SDS_P1;SDS_P2;PMS_P1;PMS_P2;Temp;Humidity;BMP_temperature;BMP_pressure;BME280_temperature;BME280_humidity;BME280_pressure;Samples;Min_cycle;Max_cycle;Signal;HPM_P1;HPM_P2
2022/04/22 00:01:24;;;;;;;;;;;11.50;99.90;;;;;;5093684;28;19927;-61
2022/04/22 00:03:50;;;;;;;;;;;11.40;99.90;;;;;;5093951;28;20017;-61
2022/04/22 00:06:16;;;;;;;;;;;11.40;99.90;;;;;;5093946;28;19966;-61
2022/04/22 00:08:41;;;;;;;;;;;11.40;99.90;;;;;;5093907;28;19920;-60
2022/04/22 00:13:52;;;;;;;;;;;11.30;99.90;;;;;;5093608;28;19922;-60
2022/04/22 00:16:17;;;;;;;;;;;11.30;99.90;;;;;;5092284;28;20018;-60
2022/04/22 00:18:43;;;;;;;;;;;11.20;99.90;;;;;;5093757;28;20002;-60
2022/04/22 00:21:09;;;;;;;;;;;11.30;99.90;;;;;;5093452;28;20434;-60
2022/04/22 00:23:34;;;;;;;;;;;11.30;99.90;;;;;;5093433;28;19993;-61
2022/04/22 00:26:00;;;;;;;;;;;11.20;99.90;;;;;;5093380;28;19915;-61
2022/04/22 00:28:25;;;;;;;;;;;11.10;99.90;;;;;;5093285;28;19915;-61
2022/04/22 00:30:51;;;;;;;;;;;11.10;99.90;;;;;;5093138;28;19916;-61
2022/04/22 00:33:17;;;;;;;;;;;11.10;99.90;;;;;;5093313;28;19969;-60
2022/04/22 00:35:45;;;;;;;;;;;11.10;99.90;;;;;;5093428;28;19923;-60
2022/04/22 00:38:11;;;;;;;;;;;11.10;99.90;;;;;;5093307;28;19969;-61
2022/04/22 00:40:37;;;;;;;;;;;11.10;99.90;;;;;;5092230;28;19920;-60
2022/04/22 00:43:15;;;;;;;;;;;11.00;99.90;;;;;;5091786;28;19931;-60
2022/04/22 00:45:41;;;;;;;;;;;11.00;99.90;;;;;;5093250;28;19916;-61
2022/04/22 00:48:06;;;;;;;;;;;11.00;99.90;;;;;;5093160;28;19916;-61
2022/04/22 00:50:32;;;;;;;;;;;11.00;99.90;;;;;;5091373;28;19927;-61
2022/04/22 00:52:58;;;;;;;;;;;10.90;99.90;;;;;;5093354;28;19927;-60
2022/04/22 00:55:23;;;;;;;;;;;10.90;99.90;;;;;;5093023;28;20277;-60
2022/04/22 00:57:50;;;;;;;;;;;10.80;99.90;;;;;;5092887;28;19968;-61
2022/04/22 01:00:16;;;;;;;;;;;10.80;99.90;;;;;;5092867;28;19923;-61
2022/04/22 01:02:41;;;;;;;;;;;10.80;99.90;;;;;;5093048;28;19920;-61
2022/04/22 01:10:36;;;;;;;;;;;10.70;99.90;;;;;;5092626;28;19916;-61
2022/04/22 01:13:01;;;;;;;;;;;10.70;99.90;;;;;;5092983;28;19930;-60
2022/04/22 01:15:27;;;;;;;;;;;10.60;99.90;;;;;;5092922;28;19920;-60
2022/04/22 01:17:53;;;;;;;;;;;10.60;99.90;;;;;;5092409;28;20327;-61
2022/04/22 01:20:19;;;;;;;;;;;10.60;99.90;;;;;;5092933;28;19941;-60
2022/04/22 01:22:44;;;;;;;;;;;10.50;99.90;;;;;;5092779;28;19963;-61
2022/04/22 01:25:10;;;;;;;;;;;10.40;99.90;;;;;;5092424;28;19923;-61
2022/04/22 01:27:37;;;;;;;;;;;10.40;99.90;;;;;;5092898;28;19923;-60
2022/04/22 01:30:03;;;;;;;;;;;10.40;99.90;;;;;;5092711;28;19923;-60
2022/04/22 01:32:29;;;;;;;;;;;10.40;99.90;;;;;;5092689;28;20377;-60
2022/04/22 01:34:55;;;;;;;;;;;10.40;99.90;;;;;;5092995;28;19916;-61
2022/04/22 01:37:20;;;;;;;;;;;10.30;99.90;;;;;;5091440;28;19916;-61
2022/04/22 01:39:46;;;;;;;;;;;10.30;99.90;;;;;;5091244;28;19985;-60
2022/04/22 01:42:11;;;;;;;;;;;10.30;99.90;;;;;;5092954;28;19947;-60
2022/04/22 01:44:37;;;;;;;;;;;10.30;99.90;;;;;;5093382;28;19971;-60
2022/04/22 01:47:03;;;;;;;;;;;10.20;99.90;;;;;;5092827;28;19959;-61
2022/04/22 01:49:29;;;;;;;;;;;10.10;99.90;;;;;;5092317;28;19920;-60
2022/04/22 01:51:55;;;;;;;;;;;10.10;99.90;;;;;;5091448;28;19922;-60
2022/04/22 01:54:20;;;;;;;;;;;10.10;99.90;;;;;;5092492;28;20346;-60
2022/04/22 01:56:46;;;;;;;;;;;10.00;99.90;;;;;;5092671;28;19915;-60
2022/04/22 01:59:11;;;;;;;;;;;10.00;99.90;;;;;;5092648;28;19966;-60
2022/04/22 02:01:37;;;;;;;;;;;9.90;99.90;;;;;;5092358;28;19931;-60
2022/04/22 02:04:02;;;;;;;;;;;9.90;99.90;;;;;;5092366;28;20266;-60
2022/04/22 02:06:28;;;;;;;;;;;9.80;99.90;;;;;;5092382;28;19916;-60
2022/04/22 02:08:54;;;;;;;;;;;9.80;99.90;;;;;;5092073;28;20366;-60
2022/04/22 02:11:20;;;;;;;;;;;9.80;99.90;;;;;;5092349;28;19916;-60
2022/04/22 02:13:46;;;;;;;;;;;9.70;99.90;;;;;;5094229;28;19923;-60
2022/04/22 02:16:12;;;;;;;;;;;9.70;99.90;;;;;;5095909;28;20274;-60
2022/04/22 02:18:41;;;;;;;;;;;9.60;99.90;;;;;;5094573;28;19916;-60
2022/04/22 02:21:07;;;;;;;;;;;9.60;99.90;;;;;;5096228;28;19916;-60
2022/04/22 02:23:33;;;;;;;;;;;9.60;99.90;;;;;;5094645;28;20007;-60
2022/04/22 02:25:59;;;;;;;;;;;9.50;99.90;;;;;;5095932;28;20014;-60
2022/04/22 02:28:34;;;;;;;;;;;9.50;99.90;;;;;;5095959;28;20004;-60
2022/04/22 02:31:04;;;;;;;;;;;9.40;99.90;;;;;;5095827;28;20316;-60
2022/04/22 02:33:31;;;;;;;;;;;9.40;99.90;;;;;;5095407;28;19916;-60
2022/04/22 02:35:57;;;;;;;;;;;9.40;99.90;;;;;;5095928;28;20342;-60
2022/04/22 02:38:22;;;;;;;;;;;9.40;99.90;;;;;;5095731;28;19916;-61
2022/04/22 02:46:16;;;;;;;;;;;9.20;99.90;;;;;;5095716;28;19916;-60
2022/04/22 02:48:41;;;;;;;;;;;9.20;99.90;;;;;;5095731;28;19988;-60
2022/04/22 02:51:07;;;;;;;;;;;9.20;99.90;;;;;;5095107;28;20521;-60
2022/04/22 02:53:32;;;;;;;;;;;9.20;99.90;;;;;;5095072;28;19922;-60
2022/04/22 02:55:58;;;;;;;;;;;9.10;99.90;;;;;;5094073;28;19999;-61
2022/04/22 02:58:24;;;;;;;;;;;9.10;99.90;;;;;;5095012;28;20370;-60
2022/04/22 03:00:50;;;;;;;;;;;9.00;99.90;;;;;;5095209;28;19923;-60
2022/04/22 03:03:16;;;;;;;;;;;9.10;99.90;;;;;;5095192;28;19920;-60
2022/04/22 03:05:41;;;;;;;;;;;9.00;99.90;;;;;;5095128;28;19977;-60
2022/04/22 03:08:08;;;;;;;;;;;9.00;99.90;;;;;;5095121;28;19965;-60
2022/04/22 03:10:34;;;;;;;;;;;8.90;99.90;;;;;;5095209;28;19923;-60
2022/04/22 03:13:00;;;;;;;;;;;8.90;99.90;;;;;;5094899;28;19923;-61
2022/04/22 03:15:26;;;;;;;;;;;8.90;99.90;;;;;;5093454;28;19916;-60
2022/04/22 03:17:52;;;;;;;;;;;8.90;99.90;;;;;;5095072;28;19915;-60
2022/04/22 03:20:17;;;;;;;;;;;8.90;99.90;;;;;;5094786;28;19927;-60
2022/04/22 03:22:44;;;;;;;;;;;8.90;99.90;;;;;;5094892;28;19924;-60
2022/04/22 03:25:10;;;;;;;;;;;8.80;99.90;;;;;;5094686;28;19922;-61
2022/04/22 03:27:36;;;;;;;;;;;8.90;99.90;;;;;;5093667;28;19916;-60
2022/04/22 03:30:02;;;;;;;;;;;8.80;99.90;;;;;;5094572;28;20358;-60
2022/04/22 03:32:28;;;;;;;;;;;8.80;99.90;;;;;;5094524;28;19919;-60
2022/04/22 03:34:53;;;;;;;;;;;8.80;99.90;;;;;;5094436;28;20331;-60
2022/04/22 03:37:19;;;;;;;;;;;8.80;99.90;;;;;;5095088;28;19920;-60
2022/04/22 03:39:44;;;;;;;;;;;8.80;99.90;;;;;;5094307;28;19916;-60
2022/04/22 03:42:10;;;;;;;;;;;8.70;99.90;;;;;;5094283;28;19920;-60
2022/04/22 03:44:36;;;;;;;;;;;8.70;99.90;;;;;;5094155;28;20002;-61
2022/04/22 03:47:03;;;;;;;;;;;8.70;99.90;;;;;;5094252;28;20023;-61
2022/04/22 03:49:30;;;;;;;;;;;8.70;99.90;;;;;;5093958;28;19920;-60
2022/04/22 03:51:56;;;;;;;;;;;8.70;99.90;;;;;;5094096;28;20318;-61
2022/04/22 03:54:24;;;;;;;;;;;8.60;99.90;;;;;;5093981;28;20037;-60
2022/04/22 03:59:35;;;;;;;;;;;8.60;99.90;;;;;;5093976;28;20259;-60
2022/04/22 04:02:01;;;;;;;;;;;8.60;99.90;;;;;;5094010;28;20011;-60
2022/04/22 04:04:26;;;;;;;;;;;8.50;99.90;;;;;;5094159;28;19990;-60
2022/04/22 04:06:52;;;;;;;;;;;8.50;99.90;;;;;;5093909;28;19923;-60
2022/04/22 04:17:36;;;;;;;;;;;8.50;99.90;;;;;;5093850;28;19916;-60
2022/04/22 04:25:30;;;;;;;;;;;8.30;99.90;;;;;;5093931;28;19915;-60
2022/04/22 04:27:56;;;;;;;;;;;8.30;99.90;;;;;;5092154;28;19923;-60
2022/04/22 04:30:22;;;;;;;;;;;8.30;99.90;;;;;;5093852;28;19939;-61
2022/04/22 04:32:48;;;;;;;;;;;8.30;99.90;;;;;;5093260;28;20362;-60
2022/04/22 04:35:13;;;;;;;;;;;8.30;99.90;;;;;;5093243;28;19916;-60
2022/04/22 04:37:41;;;;;;;;;;;8.30;99.90;;;;;;5091730;28;19916;-60
2022/04/22 04:40:07;;;;;;;;;;;8.30;99.90;;;;;;5093349;28;19915;-60
2022/04/22 04:42:32;;;;;;;;;;;8.30;99.90;;;;;;5093353;28;19927;-60
2022/04/22 04:44:58;;;;;;;;;;;8.20;99.90;;;;;;5093040;28;19916;-60
2022/04/22 04:47:23;;;;;;;;;;;8.20;99.90;;;;;;5093017;28;20246;-60
2022/04/22 04:49:49;;;;;;;;;;;8.10;99.90;;;;;;5093016;28;20289;-60
2022/04/22 04:52:14;;;;;;;;;;;8.20;99.90;;;;;;5091897;28;19927;-60
2022/04/22 04:54:40;;;;;;;;;;;8.10;99.90;;;;;;5093194;28;20337;-60
2022/04/22 04:57:06;;;;;;;;;;;8.10;99.90;;;;;;5093533;28;19973;-60
2022/04/22 04:59:32;;;;;;;;;;;8.20;99.90;;;;;;5091592;28;19923;-60
2022/04/22 05:01:58;;;;;;;;;;;8.20;99.90;;;;;;5091552;28;19985;-60
2022/04/22 05:04:23;;;;;;;;;;;8.20;99.90;;;;;;5092909;28;19922;-60
2022/04/22 05:06:49;;;;;;;;;;;8.20;99.90;;;;;;5092989;28;20290;-60
2022/04/22 05:09:14;;;;;;;;;;;8.20;99.90;;;;;;5092857;28;19963;-60
2022/04/22 05:11:40;;;;;;;;;;;8.30;99.90;;;;;;5093212;28;20405;-60
2022/04/22 05:14:07;;;;;;;;;;;8.20;99.90;;;;;;5092859;28;19966;-61
2022/04/22 05:16:32;;;;;;;;;;;8.30;99.90;;;;;;5092974;28;19922;-61
2022/04/22 05:18:58;;;;;;;;;;;8.30;99.90;;;;;;5091480;28;20370;-61
2022/04/22 05:21:23;;;;;;;;;;;8.30;99.90;;;;;;5092678;28;19916;-61
2022/04/22 05:23:49;;;;;;;;;;;8.40;99.90;;;;;;5092809;28;19955;-61
2022/04/22 05:26:14;;;;;;;;;;;8.50;99.90;;;;;;5092873;28;20006;-61
2022/04/22 05:28:40;;;;;;;;;;;8.50;99.90;;;;;;5092607;28;19966;-62
2022/04/22 05:33:51;;;;;;;;;;;8.60;99.90;;;;;;5092877;28;19969;-61
2022/04/22 05:36:18;;;;;;;;;;;8.70;99.90;;;;;;5092293;28;19915;-61
2022/04/22 05:38:44;;;;;;;;;;;8.70;99.90;;;;;;5092428;28;19961;-61
2022/04/22 05:41:09;;;;;;;;;;;8.80;99.90;;;;;;5092627;28;19916;-61
2022/04/22 05:43:36;;;;;;;;;;;8.90;99.90;;;;;;5092252;28;19985;-61
2022/04/22 05:46:02;;;;;;;;;;;9.00;99.90;;;;;;5090977;28;19916;-62
2022/04/22 05:48:28;;;;;;;;;;;9.10;99.90;;;;;;5094257;28;19916;-62
2022/04/22 05:50:53;;;;;;;;;;;9.20;99.90;;;;;;5096231;28;19927;-61
2022/04/22 05:53:19;;;;;;;;;;;9.20;99.90;;;;;;5096394;28;19923;-62
2022/04/22 05:55:46;;;;;;;;;;;9.30;99.90;;;;;;5096484;28;20342;-61
2022/04/22 05:58:11;;;;;;;;;;;9.40;99.90;;;;;;5096192;28;19916;-62
2022/04/22 06:00:37;;;;;;;;;;;9.50;99.90;;;;;;5096262;28;19942;-62
2022/04/22 06:03:03;;;;;;;;;;;9.70;99.90;;;;;;5095022;28;20374;-62
2022/04/22 06:05:28;;;;;;;;;;;9.80;99.90;;;;;;5096610;28;19920;-62
2022/04/22 06:10:38;;;;;;;;;;;10.00;99.90;;;;;;5096365;28;19975;-61
2022/04/22 06:13:04;;;;;;;;;;;10.00;99.90;;;;;;5096397;28;20028;-62
2022/04/22 06:15:30;;;;;;;;;;;10.20;99.90;;;;;;5095943;28;19923;-62
2022/04/22 06:17:57;;;;;;;;;;;10.40;99.90;;;;;;5095953;28;19916;-62
2022/04/22 06:20:22;;;;;;;;;;;10.50;99.90;;;;;;5096004;28;19916;-62
2022/04/22 06:22:48;;;;;;;;;;;10.70;99.90;;;;;;5095662;28;20396;-62
2022/04/22 06:25:14;;;;;;;;;;;10.90;99.90;;;;;;5096056;28;19916;-62
2022/04/22 06:27:40;;;;;;;;;;;11.00;99.90;;;;;;5094087;28;20259;-62
2022/04/22 06:30:07;;;;;;;;;;;11.20;99.90;;;;;;5095881;28;19920;-62
2022/04/22 06:32:33;;;;;;;;;;;11.20;99.90;;;;;;5095402;28;20377;-62
2022/04/22 06:34:59;;;;;;;;;;;11.30;99.90;;;;;;5095812;28;19916;-62
2022/04/22 06:37:24;;;;;;;;;;;11.50;99.90;;;;;;5095442;28;19998;-62
2022/04/22 06:48:03;;;;;;;;;;;12.00;99.90;;;;;;5095664;28;19916;-62
2022/04/22 06:50:29;;;;;;;;;;;12.20;99.90;;;;;;5095206;28;19943;-62
2022/04/22 06:52:54;;;;;;;;;;;12.60;99.90;;;;;;5095475;28;19916;-62
2022/04/22 06:55:21;;;;;;;;;;;12.60;99.90;;;;;;5095262;28;19958;-63
2022/04/22 06:57:49;;;;;;;;;;;12.70;99.90;;;;;;5095268;28;19965;-62
2022/04/22 07:00:15;;;;;;;;;;;12.80;99.90;;;;;;5092812;28;20362;-62
2022/04/22 07:02:40;;;;;;;;;;;12.80;99.90;;;;;;5093177;28;19924;-63
2022/04/22 07:05:06;;;;;;;;;;;13.00;99.90;;;;;;5095067;28;19969;-63
2022/04/22 07:07:32;;;;;;;;;;;12.80;99.90;;;;;;5095213;28;20328;-61
2022/04/22 07:09:57;;;;;;;;;;;12.80;99.90;;;;;;5093533;28;20361;-61
2022/04/22 07:12:27;;;;;;;;;;;12.90;99.90;;;;;;5094846;28;19923;-60
2022/04/22 07:15:03;;;;;;;;;;;13.20;99.90;;;;;;5094677;28;19956;-61
2022/04/22 07:17:36;;;;;;;;;;;13.20;99.90;;;;;;5095297;28;20251;-60
2022/04/22 07:20:09;;;;;;;;;;;13.30;99.90;;;;;;5093011;28;19959;-62
2022/04/22 07:22:36;;;;;;;;;;;13.20;99.90;;;;;;5094456;28;19920;-61
2022/04/22 07:25:01;;;;;;;;;;;13.50;99.90;;;;;;5094360;28;19923;-62
2022/04/22 07:27:28;;;;;;;;;;;13.50;99.90;;;;;;5094198;28;19919;-60
2022/04/22 07:29:55;;;;;;;;;;;13.60;99.90;;;;;;5094175;28;20282;-62
2022/04/22 07:32:20;;;;;;;;;;;14.00;99.90;;;;;;5094461;28;19916;-61
2022/04/22 07:34:46;;;;;;;;;;;13.90;99.90;;;;;;5094319;28;19916;-62
2022/04/22 07:37:12;;;;;;;;;;;13.80;99.90;;;;;;5094149;28;19916;-61
2022/04/22 07:39:39;;;;;;;;;;;14.30;99.90;;;;;;5094012;28;19949;-62
2022/04/22 07:42:07;;;;;;;;;;;14.20;99.90;;;;;;5093845;28;19978;-62
2022/04/22 07:47:21;;;;;;;;;;;14.70;99.90;;;;;;5094087;28;20030;-63
2022/04/22 07:49:46;;;;;;;;;;;15.00;99.90;;;;;;5093841;28;20425;-62
2022/04/22 07:52:12;;;;;;;;;;;15.00;99.90;;;;;;5093794;28;20301;-62
2022/04/22 07:54:37;;;;;;;;;;;14.80;99.90;;;;;;5093724;28;20313;-61
2022/04/22 07:57:03;;;;;;;;;;;15.10;99.90;;;;;;5092998;28;19981;-62
2022/04/22 07:59:30;;;;;;;;;;;15.20;99.90;;;;;;5094071;28;20309;-61
2022/04/22 08:01:58;;;;;;;;;;;15.60;99.90;;;;;;5093810;28;19924;-61
2022/04/22 08:04:25;;;;;;;;;;;15.50;99.90;;;;;;5093597;28;19919;-61
2022/04/22 08:06:51;;;;;;;;;;;15.80;99.90;;;;;;5093908;28;20381;-61
2022/04/22 08:09:16;;;;;;;;;;;16.10;99.90;;;;;;5093707;28;20244;-62
2022/04/22 08:11:43;;;;;;;;;;;15.90;99.90;;;;;;5092899;28;20369;-62
2022/04/22 08:14:12;;;;;;;;;;;15.90;99.90;;;;;;5093473;28;19916;-62
2022/04/22 08:16:38;;;;;;;;;;;16.30;99.90;;;;;;5093777;28;20046;-62
2022/04/22 08:19:04;;;;;;;;;;;16.20;99.90;;;;;;5093516;28;19916;-62
2022/04/22 08:21:35;;;;;;;;;;;16.10;99.90;;;;;;5093149;28;19923;-62
2022/04/22 08:24:01;;;;;;;;;;;16.20;99.90;;;;;;5093401;28;19922;-62
2022/04/22 08:26:28;;;;;;;;;;;16.00;99.90;;;;;;5093592;28;20014;-63
2022/04/22 08:28:54;;;;;;;;;;;16.20;99.90;;;;;;5092151;28;20294;-62
2022/04/22 08:31:19;;;;;;;;;;;16.40;99.90;;;;;;5093384;28;19931;-62
2022/04/22 08:33:47;;;;;;;;;;;16.80;99.90;;;;;;5093455;28;19916;-63
2022/04/22 08:36:12;;;;;;;;;;;17.10;99.90;;;;;;5092874;28;19915;-62
2022/04/22 08:38:38;;;;;;;;;;;17.40;99.90;;;;;;5093044;28;19930;-63
2022/04/22 08:41:04;;;;;;;;;;;17.60;99.90;;;;;;5093007;28;19920;-62
2022/04/22 08:43:29;;;;;;;;;;;17.50;99.90;;;;;;5092767;28;19920;-63
2022/04/22 08:45:55;;;;;;;;;;;17.80;99.90;;;;;;5092808;28;19961;-59
2022/04/22 08:51:07;;;;;;;;;;;20.00;99.90;;;;;;5091528;28;19920;-60
2022/04/22 08:53:33;;;;;;;;;;;21.00;97.60;;;;;;5092647;28;19919;-59
2022/04/22 08:56:01;;;;;;;;;;;22.30;96.30;;;;;;5092853;28;19916;-60
2022/04/22 08:58:27;;;;;;;;;;;21.70;95.10;;;;;;5092626;28;19923;-60
2022/04/22 09:00:54;;;;;;;;;;;21.60;94.80;;;;;;5090948;28;19916;-60
2022/04/22 09:03:20;;;;;;;;;;;22.10;94.50;;;;;;5092372;28;20354;-60
2022/04/22 09:05:45;;;;;;;;;;;22.50;93.70;;;;;;5092710;28;19923;-59
2022/04/22 09:08:11;;;;;;;;;;;22.50;93.20;;;;;;5092722;28;20289;-60
2022/04/22 09:10:38;;;;;;;;;;;23.00;92.00;;;;;;5092481;28;20374;-60
2022/04/22 09:13:09;;;;;;;;;;;22.90;92.20;;;;;;5092491;28;19917;-59
2022/04/22 09:15:36;;;;;;;;;;;23.40;92.00;;;;;;5092288;28;19919;-59
2022/04/22 09:18:08;;;;;;;;;;;23.20;91.70;;;;;;5092132;28;19916;-60
2022/04/22 09:20:34;;;;;;;;;;;22.70;91.10;;;;;;5092346;28;19920;-59
2022/04/22 09:23:00;;;;;;;;;;;22.50;90.60;;;;;;5090828;28;19927;-59
2022/04/22 09:25:26;;;;;;;;;;;23.10;91.70;;;;;;5092509;28;19998;-59
2022/04/22 09:27:52;;;;;;;;;;;23.40;91.10;;;;;;5092278;28;20011;-59
2022/04/22 09:30:17;;;;;;;;;;;24.20;90.90;;;;;;5091024;28;19969;-60
2022/04/22 09:32:45;;;;;;;;;;;24.40;90.30;;;;;;5092136;28;19919;-60
2022/04/22 09:35:10;;;;;;;;;;;23.90;90.40;;;;;;5092224;28;19915;-60
2022/04/22 09:43:37;;;;;;;;;;;24.60;90.20;;;;;;5092203;28;19931;-60
2022/04/22 09:46:03;;;;;;;;;;;24.50;88.30;;;;;;5091962;28;19919;-60
2022/04/22 09:48:42;;;;;;;;;;;25.30;88.30;;;;;;5092156;28;20053;-60
2022/04/22 09:51:22;;;;;;;;;;;26.10;86.30;;;;;;5092202;28;19929;-59
2022/04/22 09:53:58;;;;;;;;;;;25.60;85.40;;;;;;5092250;28;19920;-61
2022/04/22 09:56:24;;;;;;;;;;;25.70;85.10;;;;;;5092342;28;19999;-60
2022/04/22 09:58:49;;;;;;;;;;;25.10;84.20;;;;;;5092530;28;20453;-60
2022/04/22 10:01:15;;;;;;;;;;;24.00;85.50;;;;;;5091802;28;20410;-60
2022/04/22 10:03:41;;;;;;;;;;;24.70;85.00;;;;;;5091604;28;19920;-61
2022/04/22 10:06:07;;;;;;;;;;;24.40;85.20;;;;;;5092130;28;19962;-60
2022/04/22 10:08:36;;;;;;;;;;;25.30;86.20;;;;;;5091705;28;19985;-60
2022/04/22 10:11:03;;;;;;;;;;;24.80;85.00;;;;;;5091718;28;19969;-60
2022/04/22 10:13:34;;;;;;;;;;;24.10;84.20;;;;;;5091974;28;19916;-60
2022/04/22 10:16:02;;;;;;;;;;;25.10;84.40;;;;;;5092085;28;19920;-60
2022/04/22 10:18:28;;;;;;;;;;;24.30;82.60;;;;;;5091771;28;19920;-60
2022/04/22 10:20:54;;;;;;;;;;;24.30;84.90;;;;;;5091770;28;19999;-60
2022/04/22 10:23:20;;;;;;;;;;;24.50;85.30;;;;;;5091962;28;20495;-60
2022/04/22 10:25:45;;;;;;;;;;;23.70;84.40;;;;;;5092275;28;19916;-60
2022/04/22 10:28:12;;;;;;;;;;;23.10;83.50;;;;;;5091594;28;19923;-60
2022/04/22 10:30:41;;;;;;;;;;;23.30;85.40;;;;;;5091916;28;20286;-59
2022/04/22 10:33:08;;;;;;;;;;;23.60;84.70;;;;;;5092104;28;19994;-60
2022/04/22 10:35:44;;;;;;;;;;;23.90;84.60;;;;;;5095171;28;19977;-62
2022/04/22 10:38:29;;;;;;;;;;;24.40;84.50;;;;;;5095590;28;19916;-60
2022/04/22 10:40:55;;;;;;;;;;;23.50;83.40;;;;;;5095148;28;20015;-60
2022/04/22 10:43:22;;;;;;;;;;;24.50;85.40;;;;;;5094768;28;20022;-60
2022/04/22 10:48:33;;;;;;;;;;;24.80;84.40;;;;;;5094903;28;20354;-59
2022/04/22 10:51:00;;;;;;;;;;;24.70;84.50;;;;;;5094891;28;19931;-60
2022/04/22 10:53:26;;;;;;;;;;;24.90;84.20;;;;;;5095078;28;20441;-60
2022/04/22 10:55:52;;;;;;;;;;;25.50;83.90;;;;;;5095013;28;19994;-60
2022/04/22 10:58:21;;;;;;;;;;;24.80;82.20;;;;;;5093511;28;20404;-60
2022/04/22 11:00:50;;;;;;;;;;;24.90;82.90;;;;;;5095205;28;19920;-60
2022/04/22 11:03:18;;;;;;;;;;;24.90;84.50;;;;;;5094635;28;19919;-60
2022/04/22 11:05:50;;;;;;;;;;;24.60;81.60;;;;;;5094678;28;20270;-60
2022/04/22 11:08:17;;;;;;;;;;;24.30;81.30;;;;;;5094647;28;20308;-61
2022/04/22 11:10:45;;;;;;;;;;;24.30;81.50;;;;;;5094791;28;19916;-60
2022/04/22 11:13:29;;;;;;;;;;;24.10;82.30;;;;;;5094382;28;20369;-61
2022/04/22 11:15:58;;;;;;;;;;;24.10;81.90;;;;;;5094533;28;20057;-60
2022/04/22 11:18:24;;;;;;;;;;;24.50;82.10;;;;;;5094409;28;19947;-60
2022/04/22 11:20:51;;;;;;;;;;;24.30;81.60;;;;;;5094547;28;20387;-60
2022/04/22 11:23:17;;;;;;;;;;;24.70;81.30;;;;;;5094430;28;20032;-60
2022/04/22 11:25:43;;;;;;;;;;;24.90;82.20;;;;;;5094316;28;20011;-60
2022/04/22 11:28:09;;;;;;;;;;;25.00;82.00;;;;;;5092931;28;19916;-60
2022/04/22 11:30:35;;;;;;;;;;;24.40;80.90;;;;;;5094271;28;20271;-61
2022/04/22 11:33:19;;;;;;;;;;;24.40;80.60;;;;;;5094058;28;20362;-60
2022/04/22 11:35:47;;;;;;;;;;;24.20;81.60;;;;;;5094515;28;20277;-60
2022/04/22 11:38:13;;;;;;;;;;;24.20;82.30;;;;;;5094517;28;20006;-61
2022/04/22 11:40:39;;;;;;;;;;;24.40;80.60;;;;;;5094100;28;19916;-60
2022/04/22 11:43:14;;;;;;;;;;;24.10;81.90;;;;;;5093998;28;20301;-61
2022/04/22 11:45:41;;;;;;;;;;;24.40;81.30;;;;;;5093723;28;19916;-61
2022/04/22 11:48:08;;;;;;;;;;;24.20;81.70;;;;;;5093782;28;19920;-60
2022/04/22 11:50:38;;;;;;;;;;;24.50;82.10;;;;;;5093835;28;19919;-61
2022/04/22 11:53:07;;;;;;;;;;;23.60;79.70;;;;;;5093524;28;19916;-60
2022/04/22 11:55:32;;;;;;;;;;;24.40;81.10;;;;;;5093773;28;20026;-60
2022/04/22 11:57:59;;;;;;;;;;;25.00;82.00;;;;;;5093698;28;20429;-61
2022/04/22 12:05:54;;;;;;;;;;;24.10;81.40;;;;;;5093745;28;20361;-60
2022/04/22 12:08:20;;;;;;;;;;;24.00;81.10;;;;;;5093906;28;19973;-60
2022/04/22 12:10:48;;;;;;;;;;;24.20;81.20;;;;;;5093357;28;19931;-60
2022/04/22 12:13:14;;;;;;;;;;;24.40;80.20;;;;;;5093907;28;20399;-60
2022/04/22 12:15:45;;;;;;;;;;;23.90;80.50;;;;;;5074937;28;19920;-60
2022/04/22 12:18:25;;;;;;;;;;;23.70;80.70;;;;;;5093527;28;19920;-60
2022/04/22 12:20:51;;;;;;;;;;;23.90;82.10;;;;;;5092187;28;19963;-59
2022/04/22 12:23:18;;;;;;;;;;;24.60;81.20;;;;;;5093400;28;20016;-60
2022/04/22 12:25:54;;;;;;;;;;;25.50;81.00;;;;;;5093104;28;20358;-61
2022/04/22 12:28:20;;;;;;;;;;;24.60;79.70;;;;;;5092846;28;20373;-61
2022/04/22 12:30:46;;;;;;;;;;;24.00;79.60;;;;;;5093251;28;19920;-60
2022/04/22 12:33:23;;;;;;;;;;;23.70;79.80;;;;;;5093230;28;20312;-59
2022/04/22 12:35:49;;;;;;;;;;;23.80;81.30;;;;;;5092961;28;20002;-58
2022/04/22 12:38:16;;;;;;;;;;;23.90;81.40;;;;;;5093056;28;20308;-59
2022/04/22 12:40:45;;;;;;;;;;;23.40;80.40;;;;;;5093131;28;19970;-59
2022/04/22 12:43:27;;;;;;;;;;;23.40;83.40;;;;;;5092896;28;19965;-59
2022/04/22 12:54:20;;;;;;;;;;;23.70;82.40;;;;;;5092553;28;20298;-58
2022/04/22 12:56:54;;;;;;;;;;;23.00;84.30;;;;;;5091985;28;19916;-59
2022/04/22 12:59:20;;;;;;;;;;;23.40;83.90;;;;;;5092689;28;20293;-59
2022/04/22 13:01:48;;;;;;;;;;;23.50;84.20;;;;;;5092729;28;19920;-59
2022/04/22 13:04:22;;;;;;;;;;;23.50;82.90;;;;;;5092467;28;19916;-59
2022/04/22 13:06:49;;;;;;;;;;;24.10;83.30;;;;;;5092530;28;19924;-58
2022/04/22 13:09:15;;;;;;;;;;;23.60;84.20;;;;;;5092588;28;19971;-59
2022/04/22 13:11:41;;;;;;;;;;;23.70;83.20;;;;;;5092644;28;19920;-58
2022/04/22 13:14:07;;;;;;;;;;;23.90;85.20;;;;;;5092745;28;19923;-58
2022/04/22 13:16:33;;;;;;;;;;;23.60;83.70;;;;;;5092608;28;19916;-58
2022/04/22 13:18:59;;;;;;;;;;;23.20;83.20;;;;;;5089554;28;19939;-59
2022/04/22 13:21:25;;;;;;;;;;;23.30;86.20;;;;;;5091790;28;19923;-59
2022/04/22 13:23:50;;;;;;;;;;;24.00;85.00;;;;;;5092128;28;19916;-61
2022/04/22 13:26:19;;;;;;;;;;;23.40;84.30;;;;;;5091735;28;19947;-58
2022/04/22 13:28:45;;;;;;;;;;;23.20;85.70;;;;;;5091920;28;20328;-59
2022/04/22 13:31:11;;;;;;;;;;;23.10;85.10;;;;;;5092537;28;19916;-61
2022/04/22 13:33:36;;;;;;;;;;;22.40;85.60;;;;;;5092486;28;20014;-61
2022/04/22 13:36:03;;;;;;;;;;;21.90;86.50;;;;;;5092297;28;20285;-61
2022/04/22 13:38:28;;;;;;;;;;;22.00;86.90;;;;;;5091669;28;19927;-59
2022/04/22 13:40:54;;;;;;;;;;;21.90;87.20;;;;;;5092197;28;19918;-59
2022/04/22 13:43:19;;;;;;;;;;;21.20;87.00;;;;;;5092073;28;19920;-59
2022/04/22 13:53:57;;;;;;;;;;;22.20;87.50;;;;;;5091403;28;20287;-61
2022/04/22 13:56:23;;;;;;;;;;;22.70;86.70;;;;;;5092023;28;20010;-58
2022/04/22 13:58:48;;;;;;;;;;;22.40;85.70;;;;;;5091439;28;19916;-58
2022/04/22 14:01:14;;;;;;;;;;;22.70;85.90;;;;;;5091392;28;19968;-59
2022/04/22 14:03:39;;;;;;;;;;;23.00;87.10;;;;;;5090824;28;19923;-61
2022/04/22 14:06:05;;;;;;;;;;;22.80;86.10;;;;;;5091856;28;19919;-60
2022/04/22 14:08:30;;;;;;;;;;;22.70;87.60;;;;;;5091172;28;19970;-59
2022/04/22 14:10:56;;;;;;;;;;;22.70;87.10;;;;;;5094901;28;19916;-59
2022/04/22 14:13:21;;;;;;;;;;;22.90;87.80;;;;;;5095554;28;20323;-58
2022/04/22 14:15:47;;;;;;;;;;;22.90;88.00;;;;;;5095431;28;19924;-60
2022/04/22 14:18:13;;;;;;;;;;;22.30;85.90;;;;;;5095288;28;20312;-59
2022/04/22 14:20:38;;;;;;;;;;;21.80;88.70;;;;;;5095480;28;19924;-59
2022/04/22 14:23:04;;;;;;;;;;;21.70;88.30;;;;;;5095195;28;19971;-61
2022/04/22 14:25:29;;;;;;;;;;;21.70;89.40;;;;;;5095809;28;20020;-61
2022/04/22 14:27:55;;;;;;;;;;;22.10;87.90;;;;;;5095811;28;19920;-61
2022/04/22 14:30:20;;;;;;;;;;;22.20;88.10;;;;;;5094134;28;19923;-61
2022/04/22 14:32:46;;;;;;;;;;;22.10;87.50;;;;;;5094569;28;19923;-59
2022/04/22 14:35:12;;;;;;;;;;;21.90;88.80;;;;;;5093838;28;20030;-61
2022/04/22 14:37:37;;;;;;;;;;;22.00;88.60;;;;;;5095260;28;20293;-61
2022/04/22 14:40:03;;;;;;;;;;;22.30;88.10;;;;;;5095401;28;19955;-58
2022/04/22 14:42:29;;;;;;;;;;;22.40;86.80;;;;;;5094486;28;20362;-59
2022/04/22 14:44:55;;;;;;;;;;;22.30;88.20;;;;;;5094693;28;19915;-62
2022/04/22 14:47:21;;;;;;;;;;;22.00;87.10;;;;;;5094999;28;19920;-62
2022/04/22 14:49:47;;;;;;;;;;;22.10;86.20;;;;;;5094433;28;19923;-62
2022/04/22 14:52:13;;;;;;;;;;;22.20;88.10;;;;;;5094891;28;19916;-61
2022/04/22 14:54:39;;;;;;;;;;;21.40;87.80;;;;;;5094699;28;19985;-61
2022/04/22 14:57:05;;;;;;;;;;;21.20;88.00;;;;;;5093885;28;20397;-61
2022/04/22 14:59:31;;;;;;;;;;;20.90;88.00;;;;;;5093147;28;19916;-61
2022/04/22 15:01:56;;;;;;;;;;;21.20;88.70;;;;;;5092077;28;20353;-61
2022/04/22 15:04:22;;;;;;;;;;;21.20;88.80;;;;;;5093935;28;19958;-61
2022/04/22 15:06:47;;;;;;;;;;;21.20;88.60;;;;;;5094274;28;20387;-61
2022/04/22 15:09:15;;;;;;;;;;;21.40;87.10;;;;;;5094776;28;19923;-61
2022/04/22 15:11:41;;;;;;;;;;;21.50;88.60;;;;;;5094535;28;20058;-61
2022/04/22 15:14:06;;;;;;;;;;;21.70;88.00;;;;;;5094551;28;20379;-61
2022/04/22 15:16:32;;;;;;;;;;;22.10;88.50;;;;;;5094914;28;19923;-62
2022/04/22 15:24:26;;;;;;;;;;;21.20;86.90;;;;;;5094360;28;19915;-61
2022/04/22 15:26:54;;;;;;;;;;;20.90;88.40;;;;;;5094494;28;19998;-62
2022/04/22 15:29:20;;;;;;;;;;;20.50;88.00;;;;;;5094640;28;20313;-61
2022/04/22 15:31:46;;;;;;;;;;;20.00;88.00;;;;;;5094475;28;19916;-62
2022/04/22 15:34:11;;;;;;;;;;;19.90;89.40;;;;;;5094223;28;19916;-62
2022/04/22 15:36:41;;;;;;;;;;;20.00;90.40;;;;;;5094138;28;19920;-62
2022/04/22 15:39:06;;;;;;;;;;;20.10;89.40;;;;;;5094165;28;19923;-61
2022/04/22 15:41:33;;;;;;;;;;;20.10;89.20;;;;;;5094177;28;19920;-61
2022/04/22 15:43:59;;;;;;;;;;;20.30;89.80;;;;;;5092810;28;20007;-62